createdAt,value
2022-09-18T00:01:18.768Z,8.43
2022-09-18T00:04:23.926Z,8.80
2022-09-18T00:07:28.995Z,10.95
2022-09-18T00:10:34.230Z,11.52
2022-09-18T00:13:42.580Z,8.98
2022-09-18T00:16:47.857Z,8.77
2022-09-18T00:19:52.852Z,10.65
2022-09-18T00:22:58.103Z,11.88
2022-09-18T00:26:03.312Z,10.80
2022-09-18T00:29:10.999Z,11.38
2022-09-18T00:32:16.194Z,8.93
2022-09-18T00:35:21.211Z,14.02
2022-09-18T00:38:26.291Z,10.15
2022-09-18T00:41:32.526Z,7.50
2022-09-18T00:44:47.843Z,11.10
2022-09-18T00:47:54.290Z,11.55
2022-09-18T00:51:01.439Z,13.00
2022-09-18T00:54:09.838Z,9.60
2022-09-18T00:57:15.832Z,12.73
2022-09-18T01:00:23.882Z,10.18
2022-09-18T01:03:28.829Z,8.32
2022-09-18T01:06:40.001Z,10.52
2022-09-18T01:09:48.546Z,7.78
2022-09-18T01:12:56.355Z,12.63
2022-09-18T01:16:08.153Z,11.02
2022-09-18T01:19:18.941Z,12.10
2022-09-18T01:22:28.334Z,8.88
2022-09-18T01:25:39.522Z,12.13
2022-09-18T01:28:49.481Z,10.02
2022-09-18T01:31:56.618Z,10.70
2022-09-18T01:35:10.163Z,12.88
2022-09-18T01:38:32.208Z,17.00
2022-09-18T01:41:38.630Z,9.60
2022-09-18T01:44:48.055Z,14.15
2022-09-18T01:47:55.085Z,13.20
2022-09-18T01:51:05.248Z,13.05
2022-09-18T01:54:14.722Z,9.82
2022-09-18T01:57:24.540Z,10.57
2022-09-18T02:00:34.054Z,10.07
2022-09-18T02:03:42.141Z,11.93
2022-09-18T02:06:48.819Z,13.88
2022-09-18T02:09:54.197Z,13.45
2022-09-18T02:13:00.498Z,14.43
2022-09-18T02:16:10.723Z,10.60
2022-09-18T02:19:20.261Z,13.05
2022-09-18T02:22:25.665Z,16.33
2022-09-18T02:25:34.580Z,17.07
2022-09-18T02:28:39.951Z,16.20
2022-09-18T02:31:49.593Z,15.27
2022-09-18T02:34:55.652Z,14.70
2022-09-18T02:38:02.555Z,14.18
2022-09-18T02:41:11.136Z,19.55
2022-09-18T02:44:17.999Z,20.40
2022-09-18T02:47:31.624Z,15.93
2022-09-18T02:50:39.809Z,19.42
2022-09-18T02:53:47.033Z,18.50
2022-09-18T02:56:53.902Z,16.48
2022-09-18T03:00:00.719Z,21.02
2022-09-18T03:03:08.934Z,21.13
2022-09-18T03:06:20.638Z,28.30
2022-09-18T03:09:25.830Z,19.23
2022-09-18T03:12:31.089Z,20.55
2022-09-18T03:15:36.184Z,19.70
2022-09-18T03:18:43.933Z,20.58
2022-09-18T03:21:51.309Z,21.10
2022-09-18T03:24:57.131Z,18.13
2022-09-18T03:28:02.251Z,16.77
2022-09-18T03:31:15.584Z,17.98
2022-09-18T03:34:24.834Z,16.90
2022-09-18T03:37:30.345Z,16.75
2022-09-18T03:40:36.958Z,15.32
2022-09-18T03:43:43.917Z,13.65
2022-09-18T03:46:50.618Z,14.35
2022-09-18T03:49:59.809Z,16.80
2022-09-18T03:53:05.079Z,20.48
2022-09-18T03:56:19.617Z,16.70
2022-09-18T03:59:30.415Z,16.95
2022-09-18T04:02:45.228Z,15.70
2022-09-18T04:06:12.541Z,14.45
2022-09-18T04:09:35.877Z,14.38
2022-09-18T04:12:41.244Z,14.32
2022-09-18T04:15:54.857Z,13.60
2022-09-18T04:19:00.184Z,13.00
2022-09-18T04:22:07.943Z,14.75
2022-09-18T04:25:17.888Z,18.15
2022-09-18T04:28:24.896Z,13.23
2022-09-18T04:31:30.758Z,17.52
2022-09-18T04:34:39.754Z,21.48
2022-09-18T04:37:50.107Z,23.08
2022-09-18T04:40:56.768Z,14.90
2022-09-18T04:44:02.190Z,18.00
2022-09-18T04:47:07.952Z,13.95
2022-09-18T04:50:13.244Z,14.80
2022-09-18T04:53:40.859Z,12.15
2022-09-18T04:56:47.772Z,11.80
2022-09-18T04:59:53.384Z,14.30
2022-09-18T05:02:58.617Z,13.43
2022-09-18T05:06:06.285Z,19.38
2022-09-18T05:09:13.874Z,14.13
2022-09-18T05:12:18.857Z,16.17
2022-09-18T05:15:24.113Z,13.45
2022-09-18T05:18:30.586Z,12.45
2022-09-18T05:21:37.558Z,14.00
2022-09-18T05:24:48.391Z,11.48
2022-09-18T05:27:56.864Z,16.70
2022-09-18T05:31:05.125Z,15.48
2022-09-18T05:34:16.456Z,16.95
2022-09-18T05:37:22.207Z,17.17
2022-09-18T05:40:35.238Z,14.38
2022-09-18T05:43:40.753Z,13.15
2022-09-18T05:46:49.984Z,15.97
2022-09-18T05:49:55.789Z,13.93
2022-09-18T05:53:03.352Z,17.65
2022-09-18T05:56:19.568Z,17.40
2022-09-18T05:59:25.057Z,15.65
2022-09-18T06:02:32.556Z,25.23
2022-09-18T06:05:54.233Z,21.52
2022-09-18T06:09:00.542Z,17.63
2022-09-18T06:12:08.805Z,16.88
2022-09-18T06:15:14.912Z,17.35
2022-09-18T06:18:21.305Z,14.85
2022-09-18T06:21:26.584Z,16.83
2022-09-18T06:24:31.803Z,13.20
2022-09-18T06:27:53.848Z,12.77
2022-09-18T06:30:59.065Z,17.88
2022-09-18T06:34:04.325Z,15.95
2022-09-18T06:37:12.082Z,18.02
2022-09-18T06:40:19.919Z,19.08
2022-09-18T06:43:51.483Z,16.80
2022-09-18T06:47:11.164Z,17.45
2022-09-18T06:50:20.345Z,17.73
2022-09-18T06:53:26.220Z,24.33
2022-09-18T06:56:37.111Z,19.90
2022-09-18T06:59:47.440Z,22.33
2022-09-18T07:02:58.852Z,22.02
2022-09-18T07:06:30.079Z,16.75
2022-09-18T07:09:35.228Z,18.20
2022-09-18T07:12:52.866Z,15.57
2022-09-18T07:16:01.012Z,18.15
2022-09-18T07:19:06.808Z,18.77
2022-09-18T07:22:13.377Z,22.75
2022-09-18T07:25:21.979Z,22.70
2022-09-18T07:28:27.079Z,19.75
2022-09-18T07:31:41.928Z,21.35
2022-09-18T07:34:47.880Z,14.63
2022-09-18T07:38:00.264Z,13.63
2022-09-18T07:41:19.522Z,14.18
2022-09-18T07:44:24.471Z,13.98
2022-09-18T07:47:33.489Z,17.50
2022-09-18T07:50:40.106Z,16.10
2022-09-18T07:53:47.596Z,14.57
2022-09-18T07:56:58.232Z,17.00
2022-09-18T08:00:07.621Z,14.13
2022-09-18T08:03:23.068Z,15.23
2022-09-18T08:07:04.295Z,13.52
2022-09-18T08:10:45.587Z,13.25
2022-09-18T08:14:11.263Z,18.27
2022-09-18T08:17:23.064Z,13.23
2022-09-18T08:20:49.075Z,12.68
2022-09-18T08:24:03.529Z,14.52
2022-09-18T08:27:09.246Z,12.00
2022-09-18T08:30:15.785Z,11.90
2022-09-18T08:33:22.883Z,13.80
2022-09-18T08:36:30.522Z,16.25
2022-09-18T08:39:39.321Z,14.45
2022-09-18T08:42:51.200Z,12.05
2022-09-18T08:45:58.869Z,11.00
2022-09-18T08:49:10.170Z,10.45
2022-09-18T08:52:19.468Z,9.30
2022-09-18T08:55:33.668Z,13.80
2022-09-18T08:58:59.892Z,9.25
2022-09-18T09:02:15.708Z,13.20
2022-09-18T09:05:23.843Z,13.02
2022-09-18T09:08:39.013Z,7.35
2022-09-18T09:11:47.832Z,11.35
2022-09-18T09:15:03.746Z,10.90
2022-09-18T09:18:18.324Z,19.10
2022-09-18T09:21:26.303Z,12.95
2022-09-18T09:24:36.519Z,7.45
2022-09-18T09:27:43.516Z,9.45
2022-09-18T09:31:10.059Z,12.88
2022-09-18T09:34:35.541Z,12.05
2022-09-18T09:37:54.170Z,11.43
2022-09-18T09:41:04.882Z,13.93
2022-09-18T09:44:21.203Z,15.18
2022-09-18T09:47:30.637Z,13.13
2022-09-18T09:50:43.444Z,14.18
2022-09-18T09:53:48.676Z,11.52
2022-09-18T09:57:02.883Z,24.70
2022-09-18T10:00:12.999Z,21.35
2022-09-18T10:03:32.632Z,12.32
2022-09-18T10:06:43.626Z,15.98
2022-09-18T10:09:51.573Z,12.00
2022-09-18T10:13:02.992Z,11.50
2022-09-18T10:16:13.388Z,14.60
2022-09-18T10:19:20.652Z,12.88
2022-09-18T10:22:26.999Z,12.68
2022-09-18T10:25:36.832Z,15.43
2022-09-18T10:28:44.945Z,11.18
2022-09-18T10:34:57.423Z,13.10
2022-09-18T10:38:03.071Z,9.23
2022-09-18T10:41:22.204Z,9.93
2022-09-18T10:44:31.152Z,11.38
2022-09-18T10:47:41.254Z,12.65
2022-09-18T10:50:55.265Z,18.00
2022-09-18T10:54:06.874Z,13.00
2022-09-18T10:57:32.094Z,14.82
2022-09-18T11:00:45.039Z,13.10
2022-09-18T11:03:51.660Z,13.93
2022-09-18T11:07:07.728Z,13.82
2022-09-18T11:10:19.242Z,12.00
2022-09-18T11:13:26.305Z,14.57
2022-09-18T11:16:36.399Z,12.45
2022-09-18T11:19:42.023Z,17.70
2022-09-18T11:23:17.777Z,13.88
2022-09-18T11:26:29.746Z,10.07
2022-09-18T11:29:40.013Z,10.65
2022-09-18T11:32:53.598Z,11.13
2022-09-18T11:36:00.970Z,11.65
2022-09-18T11:39:15.702Z,11.90
2022-09-18T11:42:22.833Z,15.70
2022-09-18T11:45:45.970Z,15.77
2022-09-18T11:48:59.372Z,13.38
2022-09-18T11:52:13.575Z,13.05
2022-09-18T11:55:28.793Z,11.93
2022-09-18T11:58:37.865Z,17.27
2022-09-18T12:01:44.803Z,16.38
2022-09-18T12:04:55.237Z,11.65
2022-09-18T12:08:03.595Z,11.77
2022-09-18T12:11:15.807Z,16.45
2022-09-18T12:14:24.253Z,14.18
2022-09-18T12:17:48.778Z,15.40
2022-09-18T12:20:59.255Z,12.45
2022-09-18T12:24:05.405Z,20.10
2022-09-18T12:27:20.628Z,14.30
2022-09-18T12:30:30.950Z,14.38
2022-09-18T12:33:39.829Z,16.38
2022-09-18T12:36:55.814Z,13.40
2022-09-18T12:40:09.579Z,12.88
2022-09-18T12:43:26.526Z,17.23
2022-09-18T12:46:49.406Z,16.67
2022-09-18T12:50:04.679Z,13.95
2022-09-18T12:53:20.111Z,14.15
2022-09-18T12:56:38.542Z,19.77
2022-09-18T13:02:55.097Z,24.55
2022-09-18T13:06:01.769Z,18.67
2022-09-18T13:09:13.597Z,22.85
2022-09-18T13:12:21.041Z,24.52
2022-09-18T13:15:28.639Z,18.60
2022-09-18T13:18:37.747Z,19.37
2022-09-18T13:24:52.727Z,18.52
2022-09-18T13:27:58.420Z,18.80
2022-09-18T13:31:18.636Z,23.92
2022-09-18T13:34:25.106Z,20.40
2022-09-18T13:37:31.260Z,21.88
2022-09-18T13:40:40.439Z,20.73
2022-09-18T13:43:46.847Z,21.70
2022-09-18T13:46:52.605Z,20.58
2022-09-18T13:49:59.483Z,21.17
2022-09-18T13:53:05.315Z,17.95
2022-09-18T13:56:14.353Z,20.77
2022-09-18T13:59:22.866Z,18.13
2022-09-18T14:05:34.488Z,13.73
2022-09-18T14:08:40.319Z,19.48
2022-09-18T14:11:47.884Z,14.63
2022-09-18T14:15:00.581Z,15.10
2022-09-18T14:18:10.100Z,15.70
2022-09-18T14:21:17.264Z,13.07
2022-09-18T14:24:25.780Z,14.37
2022-09-18T14:27:38.208Z,11.63
2022-09-18T14:30:43.493Z,10.65
2022-09-18T14:33:48.796Z,12.05
2022-09-18T14:36:55.193Z,10.90
2022-09-18T14:40:01.380Z,11.05
2022-09-18T14:43:19.469Z,13.43
2022-09-18T14:46:26.785Z,11.00
2022-09-18T14:49:35.123Z,11.40
2022-09-18T14:52:44.749Z,8.20
2022-09-18T14:55:52.392Z,9.38
2022-09-18T14:59:02.083Z,8.83
2022-09-18T15:02:14.466Z,8.88
2022-09-18T15:05:21.149Z,13.65
2022-09-18T15:08:27.663Z,10.13
2022-09-18T15:11:47.039Z,9.48
2022-09-18T15:15:00.714Z,10.73
2022-09-18T15:18:06.448Z,10.65
2022-09-18T15:21:21.334Z,8.85
2022-09-18T15:24:26.665Z,7.15
2022-09-18T15:27:32.504Z,7.68
2022-09-18T15:30:40.812Z,6.25
2022-09-18T15:36:57.199Z,8.70
2022-09-18T15:40:04.824Z,30.05
2022-09-18T15:43:20.742Z,5.60
2022-09-18T15:46:32.074Z,6.35
2022-09-18T15:49:37.632Z,7.43
2022-09-18T15:52:43.590Z,4.97
2022-09-18T15:55:57.360Z,7.32
2022-09-18T15:59:04.311Z,4.65
2022-09-18T16:02:21.502Z,7.60
2022-09-18T16:05:26.917Z,5.55
2022-09-18T16:08:32.973Z,6.90
2022-09-18T16:11:42.388Z,6.15
2022-09-18T16:14:50.375Z,6.97
2022-09-18T16:17:59.632Z,5.00
2022-09-18T16:21:06.425Z,4.95
2022-09-18T16:24:21.168Z,4.38
2022-09-18T16:27:27.027Z,6.10
2022-09-18T16:30:33.803Z,6.72
2022-09-18T16:33:49.562Z,4.60
2022-09-18T16:36:55.431Z,4.95
2022-09-18T16:40:01.656Z,5.07
2022-09-18T16:43:07.953Z,5.38
2022-09-18T16:46:14.362Z,6.00
2022-09-18T16:49:23.458Z,5.70
2022-09-18T16:52:28.769Z,4.32
2022-09-18T16:55:34.004Z,10.85
2022-09-18T16:58:39.390Z,6.07
2022-09-18T17:02:02.803Z,7.22
2022-09-18T17:05:11.820Z,5.97
2022-09-18T17:08:16.935Z,7.50
2022-09-18T17:11:22.109Z,4.78
2022-09-18T17:14:27.941Z,8.02
2022-09-18T17:17:33.333Z,6.47
2022-09-18T17:20:41.023Z,7.28
2022-09-18T17:23:46.102Z,6.75
2022-09-18T17:26:51.160Z,7.80
2022-09-18T17:29:56.248Z,7.28
2022-09-18T17:33:01.299Z,7.70
2022-09-18T17:36:09.749Z,8.27
2022-09-18T17:42:19.873Z,7.63
2022-09-18T17:45:24.795Z,8.20
2022-09-18T17:48:31.453Z,9.98
2022-09-18T17:51:39.296Z,8.57
2022-09-18T17:54:44.388Z,12.32
2022-09-18T17:57:53.136Z,9.98
2022-09-18T18:00:58.676Z,13.95
2022-09-18T18:04:04.092Z,10.02
2022-09-18T18:07:11.970Z,10.88
2022-09-18T18:10:17.119Z,8.60
2022-09-18T18:13:22.598Z,8.98
2022-09-18T18:16:29.007Z,8.77
2022-09-18T18:19:34.661Z,8.90
2022-09-18T18:22:42.316Z,12.05
2022-09-18T18:25:47.851Z,9.07
2022-09-18T18:28:53.205Z,9.52
2022-09-18T18:31:58.800Z,11.68
2022-09-18T18:35:04.044Z,10.13
2022-09-18T18:38:12.047Z,12.73
2022-09-18T18:41:17.632Z,13.73
2022-09-18T18:44:23.759Z,10.73
2022-09-18T18:47:29.781Z,13.57
2022-09-18T18:50:35.179Z,13.43
2022-09-18T18:53:43.181Z,12.73
2022-09-18T18:56:48.601Z,12.57
2022-09-18T18:59:53.586Z,12.75
2022-09-18T19:02:58.918Z,14.02
2022-09-18T19:06:04.564Z,17.63
2022-09-18T19:09:17.003Z,18.90
2022-09-18T19:12:27.078Z,17.73
2022-09-18T19:15:34.649Z,16.77
2022-09-18T19:18:43.239Z,18.23
2022-09-18T19:21:48.678Z,19.52
2022-09-18T19:24:56.655Z,17.50
2022-09-18T19:28:02.078Z,17.02
2022-09-18T19:31:07.650Z,16.15
2022-09-18T19:34:13.217Z,16.67
2022-09-18T19:37:18.488Z,16.77
2022-09-18T19:40:32.380Z,15.15
2022-09-18T19:43:39.607Z,15.98
2022-09-18T19:46:46.485Z,16.58
2022-09-18T19:49:52.050Z,15.85
2022-09-18T19:52:57.609Z,15.45
2022-09-18T19:56:12.371Z,14.32
2022-09-18T19:59:27.931Z,15.13
2022-09-18T20:02:33.391Z,14.95
2022-09-18T20:05:39.122Z,13.23
2022-09-18T20:08:44.262Z,16.35
2022-09-18T20:11:52.107Z,13.90
2022-09-18T20:14:57.359Z,15.57
2022-09-18T20:18:02.423Z,15.73
2022-09-18T20:21:09.730Z,11.10
2022-09-18T20:24:15.396Z,14.82
2022-09-18T20:27:23.602Z,14.75
2022-09-18T20:30:29.118Z,12.23
2022-09-18T20:33:34.799Z,11.55
2022-09-18T20:36:40.075Z,14.73
2022-09-18T20:39:45.507Z,12.20
2022-09-18T20:42:53.753Z,10.88
2022-09-18T20:46:00.289Z,14.02
2022-09-18T20:49:05.355Z,14.48
2022-09-18T20:52:14.341Z,14.05
2022-09-18T20:55:20.096Z,15.40
2022-09-18T20:58:28.397Z,15.70
2022-09-18T21:01:35.313Z,15.57
2022-09-18T21:04:44.338Z,14.27
2022-09-18T21:07:57.391Z,15.35
2022-09-18T21:11:04.830Z,15.95
2022-09-18T21:14:13.607Z,22.55
2022-09-18T21:17:18.741Z,14.73
2022-09-18T21:20:24.110Z,19.65
2022-09-18T21:23:41.584Z,17.35
2022-09-18T21:26:48.071Z,24.40
2022-09-18T21:29:58.077Z,16.70
2022-09-18T21:33:03.295Z,13.73
2022-09-18T21:36:08.696Z,12.50
2022-09-18T21:39:14.515Z,12.27
2022-09-18T21:42:19.884Z,8.88
2022-09-18T21:45:27.487Z,8.93
2022-09-18T21:48:33.309Z,7.88
2022-09-18T21:51:40.418Z,8.75
2022-09-18T21:54:45.585Z,8.95
2022-09-18T21:57:50.812Z,12.02
2022-09-18T22:00:58.788Z,10.73
2022-09-18T22:04:04.016Z,11.55
2022-09-18T22:07:09.600Z,10.18
2022-09-18T22:10:14.919Z,10.02
2022-09-18T22:13:20.106Z,9.73
2022-09-18T22:16:29.244Z,11.13
2022-09-18T22:19:39.276Z,10.10
2022-09-18T22:22:46.272Z,9.23
2022-09-18T22:25:51.516Z,11.90
2022-09-18T22:28:58.333Z,11.32
2022-09-18T22:32:06.174Z,10.00
2022-09-18T22:35:12.448Z,9.20
2022-09-18T22:38:17.692Z,8.95
2022-09-18T22:41:22.914Z,8.00
2022-09-18T22:44:28.062Z,9.00
2022-09-18T22:47:35.967Z,8.30
2022-09-18T22:50:41.093Z,9.45
2022-09-18T22:53:50.519Z,9.10
2022-09-18T22:56:57.134Z,8.25
2022-09-18T23:00:02.209Z,8.02
2022-09-18T23:03:12.387Z,8.52
2022-09-18T23:06:22.550Z,5.88
2022-09-18T23:09:30.437Z,7.07
2022-09-18T23:12:35.785Z,6.55
2022-09-18T23:15:41.137Z,6.38
2022-09-18T23:18:50.591Z,7.22
2022-09-18T23:21:55.912Z,7.05
2022-09-18T23:25:01.058Z,6.90
2022-09-18T23:28:06.521Z,7.10
2022-09-18T23:31:13.295Z,8.07
2022-09-18T23:34:22.120Z,7.80
2022-09-18T23:40:31.900Z,7.38
2022-09-18T23:43:37.207Z,8.23
2022-09-18T23:46:42.205Z,7.93
2022-09-18T23:49:50.095Z,8.45
2022-09-18T23:52:55.386Z,8.15
2022-09-18T23:56:04.280Z,8.98
2022-09-18T23:59:10.177Z,8.80
